Time;durP1;ratioP1;P1;durP2;ratioP2;P2;SDS_P1;SDS_P2;PMS_P1;PMS_P2;Temp;Humidity;BMP_temperature;BMP_pressure;BME280_temperature;BME280_humidity;BME280_pressure;Samples;Min_cycle;Max_cycle;Signal;HPM_P1;HPM_P2
2022/01/24 00:04:57;;;;;;;;;;;;;;;-0.85;100.00;97188.84;10477302;28;1886;-68
2022/01/24 00:10:04;;;;;;;;;;;;;;;-0.88;100.00;97185.72;10475578;28;1879;-69
2022/01/24 00:15:17;;;;;;;;;;;;;;;-0.93;100.00;97186.22;10473304;28;1784;-69
2022/01/24 00:31:03;;;;;;;;;;;;;;;-0.94;100.00;97186.41;10486094;28;1578;-68
2022/01/24 00:36:06;;;;;;;;;;;;;;;-0.90;100.00;97191.16;10469930;28;1863;-69
2022/01/24 00:41:13;;;;;;;;;;;;;;;-0.92;100.00;97185.22;10473795;28;1856;-69
2022/01/24 00:46:30;;;;;;;;;;;;;;;-0.90;100.00;97180.59;10475230;28;1965;-69
2022/01/24 00:56:55;;;;;;;;;;;;;;;-0.77;100.00;97174.81;10469271;28;1859;-69
2022/01/24 01:01:58;;;;;;;;;;;;;;;-0.74;100.00;97171.84;10471163;28;1950;-69
2022/01/24 01:07:06;;;;;;;;;;;;;;;-0.75;100.00;97159.63;10474017;28;1910;-69
2022/01/24 01:22:51;;;;;;;;;;;;;;;-0.88;100.00;97159.34;10524922;28;1636;-69
2022/01/24 01:27:56;;;;;;;;;;;;;;;-0.99;100.00;97144.66;10517742;28;1917;-69
2022/01/24 01:33:07;;;;;;;;;;;;;;;-0.99;100.00;97141.19;10498120;28;1566;-69
2022/01/24 01:54:47;;;;;;;;;;;;;;;-1.09;100.00;97118.44;10473239;28;1847;-69
2022/01/24 01:59:51;;;;;;;;;;;;;;;-1.06;100.00;97125.22;10490537;28;1935;-69
2022/01/24 02:04:55;;;;;;;;;;;;;;;-1.10;100.00;97135.25;10502568;28;1997;-69
2022/01/24 02:09:58;;;;;;;;;;;;;;;-1.20;100.00;97139.91;10488147;28;2143;-69
2022/01/24 02:15:02;;;;;;;;;;;;;;;-1.24;100.00;97135.94;10481795;28;1990;-68
2022/01/24 02:20:26;;;;;;;;;;;;;;;-1.28;100.00;97139.91;10476986;28;1850;-69
2022/01/24 02:25:33;;;;;;;;;;;;;;;-1.37;100.00;97112.72;10466560;28;1993;-68
2022/01/24 02:36:07;;;;;;;;;;;;;;;-1.31;100.00;97100.69;10466977;28;2204;-69
2022/01/24 02:52:08;;;;;;;;;;;;;;;-1.38;100.00;97075.97;10347810;28;1962;-68
2022/01/24 02:57:12;;;;;;;;;;;;;;;-1.37;100.00;97061.78;10442570;28;1988;-68
2022/01/24 03:02:15;;;;;;;;;;;;;;;-1.38;100.00;97063.59;10475252;28;1994;-69
2022/01/24 03:07:19;;;;;;;;;;;;;;;-1.39;100.00;97063.75;10473629;28;2251;-69
2022/01/24 03:12:39;;;;;;;;;;;;;;;-1.42;100.00;97064.06;10473390;28;1971;-69
2022/01/24 03:17:42;;;;;;;;;;;0.00;99.90;;;-1.39;100.00;97061.13;10471041;28;1931;-68
2022/01/24 03:22:45;;;;;;;;;;;0.00;99.90;;;-1.44;100.00;97061.63;10475949;28;2237;-68
2022/01/24 03:27:49;;;;;;;;;;;0.10;99.90;;;-1.45;100.00;97053.88;10475520;28;1975;-68
2022/01/24 03:32:52;;;;;;;;;;;0.00;99.90;;;-1.45;100.00;97053.88;10464656;28;2105;-68
2022/01/24 03:37:56;;;;;;;;;;;;;;;-1.50;100.00;97051.72;10472791;28;1938;-67
2022/01/24 03:43:00;;;;;;;;;;;-0.10;99.90;;;-1.49;100.00;97040.19;10464301;28;1854;-69
2022/01/24 03:48:07;;;;;;;;;;;-0.20;99.90;;;-1.44;100.00;97037.06;10472521;28;1975;-69
2022/01/24 03:53:11;;;;;;;;;;;;;;;-1.45;100.00;97044.16;10466953;28;1970;-69
2022/01/24 03:58:14;;;;;;;;;;;;;;;-1.49;100.00;97037.56;10473410;28;1904;-69
2022/01/24 04:03:18;;;;;;;;;;;;;;;-1.43;100.00;97030.78;10468998;28;1978;-69
2022/01/24 04:08:22;;;;;;;;;;;;;;;-1.54;100.00;97029.31;10469438;28;1976;-69
2022/01/24 04:13:29;;;;;;;;;;;;;;;-1.70;100.00;97022.25;10464591;28;2067;-69
2022/01/24 04:18:40;;;;;;;;;;;;;;;-1.65;100.00;97019.94;10471075;28;2042;-68
2022/01/24 04:23:46;;;;;;;;;;;;;;;-1.67;100.00;97019.28;10467034;28;2000;-69
2022/01/24 04:28:50;;;;;;;;;;;;;;;-1.67;100.00;97019.28;10472905;28;1977;-70
2022/01/24 04:33:54;;;;;;;;;;;;;;;-1.66;100.00;97026.19;10474550;28;1513;-69
2022/01/24 04:38:58;;;;;;;;;;;;;;;-1.70;100.00;97030.16;10466302;28;1908;-68
2022/01/24 04:44:11;;;;;;;;;;;;;;;-1.76;100.00;97025.56;10468345;28;1797;-69
2022/01/24 04:54:41;;;;;;;;;;;;;;;-1.73;100.00;97022.56;10464460;28;1926;-69
2022/01/24 04:59:44;;;;;;;;;;;;;;;-1.81;100.00;97027.03;10475976;28;2061;-69
2022/01/24 05:04:48;;;;;;;;;;;;;;;-1.83;100.00;97029.03;10472579;28;2036;-69
2022/01/24 05:09:57;;;;;;;;;;;;;;;-1.91;100.00;97028.03;10470922;28;1985;-68
2022/01/24 05:25:45;;;;;;;;;;;;;;;-2.08;100.00;97030.81;10467151;28;2058;-69
2022/01/24 05:30:52;;;;;;;;;;;;;;;-1.98;100.00;97042.00;10468787;28;1915;-68
2022/01/24 05:35:56;;;;;;;;;;;;;;;-2.06;100.00;97048.09;10468606;28;1895;-69
2022/01/24 05:40:59;;;;;;;;;;;;;;;-2.09;100.00;97047.63;10468866;28;1930;-67
2022/01/24 05:46:02;;;;;;;;;;;;;;;-2.20;100.00;97044.31;10471586;28;1946;-67
2022/01/24 05:51:06;;;;;;;;;;;;;;;-2.23;100.00;97055.19;10470396;28;1962;-69
2022/01/24 05:56:10;;;;;;;;;;;;;;;-2.27;100.00;97038.03;10462905;28;1904;-68
2022/01/24 06:01:14;;;;;;;;;;;;;;;-2.33;100.00;97041.31;10468926;28;1922;-68
2022/01/24 06:06:17;;;;;;;;;;;;;;;-2.34;100.00;97044.13;10466714;28;2162;-68
2022/01/24 06:11:24;;;;;;;;;;;;;;;-2.34;100.00;97037.06;10460485;28;1967;-68
2022/01/24 06:16:29;;;;;;;;;;;;;;;-2.34;100.00;97042.31;10466512;28;1951;-69
2022/01/24 06:21:33;;;;;;;;;;;;;;;-2.28;100.00;97044.31;10466166;28;1895;-68
2022/01/24 06:26:36;;;;;;;;;;;;;;;-2.23;100.00;97052.56;10465505;28;2066;-67
2022/01/24 06:31:40;;;;;;;;;;;;;;;-2.30;100.00;97064.69;10468317;28;1777;-68
2022/01/24 06:36:43;;;;;;;;;;;;;;;-2.41;100.00;97072.91;10467018;28;1954;-68
2022/01/24 06:41:52;;;;;;;;;;;;;;;-2.47;100.00;97079.66;10463949;28;2091;-69
2022/01/24 06:46:58;;;;;;;;;;;;;;;-2.52;100.00;97075.84;10486434;28;1891;-68
2022/01/24 06:52:01;;;;;;;;;;;;;;;-2.52;100.00;97081.09;10491641;28;1958;-68
2022/01/24 06:57:05;;;;;;;;;;;;;;;-2.54;100.00;97088.34;10482538;28;2022;-68
2022/01/24 07:02:08;;;;;;;;;;;;;;;-2.49;100.00;97080.78;10470231;28;1908;-68
2022/01/24 07:07:12;;;;;;;;;;;;;;;-2.49;100.00;97092.13;10475634;28;1979;-68
2022/01/24 07:12:15;;;;;;;;;;;;;;;-2.42;100.00;97096.75;10472018;28;2327;-68
2022/01/24 07:17:32;;;;;;;;;;;;;;;-2.39;100.00;97084.09;10469985;28;1860;-67
2022/01/24 07:22:35;;;;;;;;;;;;;;;-2.34;100.00;97108.16;10471704;28;1892;-70
2022/01/24 07:27:39;;;;;;;;;;;;;;;-2.15;100.00;97096.53;10479442;28;1994;-69
2022/01/24 07:32:43;;;;;;;;;;;;;;;-1.79;100.00;97096.22;10477370;28;1975;-69
2022/01/24 07:37:46;;;;;;;;;;;;;;;-1.45;100.00;97101.34;10481784;28;1994;-69
2022/01/24 07:42:56;;;;;;;;;;;;;;;-1.26;100.00;97102.81;10476255;28;1960;-69
2022/01/24 07:48:02;;;;;;;;;;;;;;;-1.15;100.00;97113.81;10487526;28;2006;-67
2022/01/24 07:53:06;;;;;;;;;;;;;;;-1.00;100.00;97121.09;10480994;28;1939;-70
2022/01/24 07:58:09;;;;;;;;;;;;;;;-1.06;100.00;97119.94;10477712;28;2194;-68
2022/01/24 08:03:14;;;;;;;;;;;;;;;-0.94;100.00;97115.13;10479259;28;2033;-69
2022/01/24 08:08:18;;;;;;;;;;;;;;;-0.68;100.00;97121.00;10472167;28;2031;-70
2022/01/24 08:13:22;;;;;;;;;;;;;;;-0.32;100.00;97125.78;10489656;28;1920;-71
2022/01/24 08:18:26;;;;;;;;;;;;;;;-0.56;100.00;97117.00;10485010;28;1499;-70
2022/01/24 08:23:29;;;;;;;;;;;;;;;-0.64;100.00;97127.56;10486884;28;1990;-69
2022/01/24 08:28:32;;;;;;;;;;;;;;;-0.59;100.00;97138.44;10485680;28;1994;-69
2022/01/24 08:33:36;;;;;;;;;;;;;;;-0.74;100.00;97132.22;10496119;28;2039;-69
2022/01/24 08:38:39;;;;;;;;;;;;;;;-0.51;100.00;97137.59;10488732;28;1997;-70
2022/01/24 08:43:57;;;;;;;;;;;;;;;-0.51;100.00;97126.19;10469905;28;1750;-70
2022/01/24 08:49:01;;;;;;;;;;;;;;;-0.74;100.00;97132.22;10472075;28;1971;-69
2022/01/24 08:54:05;;;;;;;;;;;;;;;-0.85;100.00;97135.22;10473738;28;1950;-69
2022/01/24 08:59:08;;;;;;;;;;;;;;;-0.86;100.00;97141.50;10473192;28;2035;-70
2022/01/24 09:04:12;;;;;;;;;;;;;;;-0.81;100.00;97139.19;10468956;28;2258;-68
2022/01/24 09:09:16;;;;;;;;;;;;;;;-0.57;100.00;97144.41;10467404;28;1962;-69
2022/01/24 09:14:19;;;;;;;;;;;;;;;-0.38;100.00;97148.47;10468080;28;1972;-71
2022/01/24 09:19:22;;;;;;;;;;;;;;;-0.60;100.00;97149.19;10457743;28;1935;-70
2022/01/24 09:24:26;;;;;;;;;;;;;;;-0.61;100.00;97158.09;10466396;28;2037;-69
2022/01/24 09:29:30;;;;;;;;;;;;;;;-0.76;100.00;97158.00;10466040;28;1979;-69
2022/01/24 09:34:33;;;;;;;;;;;;;;;-0.35;100.00;97163.97;10470057;28;1884;-69
2022/01/24 09:39:39;;;;;;;;;;;;;;;0.02;100.00;97164.31;10466399;28;2148;-69
2022/01/24 09:44:59;;;;;;;;;;;;;;;0.15;100.00;97161.91;10470789;28;1986;-69
2022/01/24 09:50:03;;;;;;;;;;;;;;;0.03;100.00;97174.69;10460287;28;2013;-68
2022/01/24 09:55:09;;;;;;;;;;;;;;;-0.12;100.00;97174.63;10466731;28;1938;-68
2022/01/24 10:00:12;;;;;;;;;;;;;;;0.09;100.00;97175.84;10470522;28;1836;-69
2022/01/24 10:05:17;;;;;;;;;;;0.90;99.90;;;0.02;100.00;97169.59;10472696;28;1813;-69
2022/01/24 10:10:21;;;;;;;;;;;1.00;99.90;;;-0.02;100.00;97175.22;10471867;28;2183;-66
2022/01/24 10:20:45;;;;;;;;;;;1.20;99.90;;;0.11;100.00;97173.81;10466629;28;1836;-69
2022/01/24 10:25:48;;;;;;;;;;;1.30;99.90;;;0.32;100.00;97176.69;10477421;28;1781;-69
2022/01/24 10:30:51;;;;;;;;;;;1.30;99.90;;;0.30;100.00;97168.09;10470307;28;1918;-69
2022/01/24 10:35:54;;;;;;;;;;;1.60;99.90;;;0.11;100.00;97164.06;10480351;28;1847;-70
2022/01/24 10:41:08;;;;;;;;;;;1.40;99.90;;;0.05;100.00;97158.66;10471280;28;1839;-73
2022/01/24 10:46:11;;;;;;;;;;;1.30;99.90;;;-0.24;100.00;97156.66;10474593;28;2073;-69
2022/01/24 10:51:14;;;;;;;;;;;1.10;99.90;;;0.14;100.00;97153.16;10471741;28;1851;-70
2022/01/24 10:56:17;;;;;;;;;;;1.10;99.90;;;0.06;100.00;97155.00;10477022;28;1931;-70
2022/01/24 11:01:20;;;;;;;;;;;1.20;99.90;;;0.39;100.00;97150.38;10477286;28;1932;-72
2022/01/24 11:06:24;;;;;;;;;;;1.40;99.90;;;0.16;100.00;97150.34;10472922;28;1925;-69
2022/01/24 11:11:27;;;;;;;;;;;1.40;99.90;;;0.71;100.00;97144.81;10477772;28;1800;-70
2022/01/24 11:16:29;;;;;;;;;;;1.60;99.90;;;0.79;100.00;97136.81;10469694;28;1808;-70
2022/01/24 11:21:33;;;;;;;;;;;1.90;99.90;;;1.36;100.00;97127.50;10473236;28;1795;-69
2022/01/24 11:26:39;;;;;;;;;;;2.20;99.90;;;1.03;100.00;97122.53;10479784;28;1983;-70
2022/01/24 11:31:42;;;;;;;;;;;2.30;99.90;;;1.10;100.00;97121.81;10490576;28;1555;-71
2022/01/24 11:36:45;;;;;;;;;;;2.20;99.90;;;1.07;100.00;97128.28;10508865;28;1511;-72
2022/01/24 11:41:48;;;;;;;;;;;2.30;99.90;;;1.01;100.00;97132.47;10497369;28;1745;-71
2022/01/24 11:46:55;;;;;;;;;;;2.20;99.90;;;1.23;100.00;97119.34;10482122;28;1935;-69
2022/01/24 11:51:59;;;;;;;;;;;2.30;99.90;;;1.33;100.00;97120.72;10478955;28;1842;-68
2022/01/24 11:57:03;;;;;;;;;;;2.50;99.90;;;1.39;100.00;97111.22;10468708;28;1827;-70
2022/01/24 12:02:06;;;;;;;;;;;2.60;99.90;;;1.69;100.00;97101.41;10469014;28;1848;-68
2022/01/24 12:07:09;;;;;;;;;;;2.70;99.90;;;1.83;100.00;97099.75;10460638;28;1910;-68
2022/01/24 12:12:14;;;;;;;;;;;2.90;99.90;;;1.86;100.00;97107.34;10464993;28;1851;-68
2022/01/24 12:17:37;;;;;;;;;;;3.10;99.90;;;2.00;100.00;97092.41;10468118;28;1838;-68
2022/01/24 12:22:41;;;;;;;;;;;3.10;99.90;;;1.87;100.00;97085.94;10465464;28;1871;-69
2022/01/24 12:27:45;;;;;;;;;;;3.20;99.90;;;1.53;100.00;97094.50;10468358;28;1973;-67
2022/01/24 12:32:48;;;;;;;;;;;2.80;99.90;;;1.92;100.00;97093.34;10474856;28;1851;-68
2022/01/24 12:37:51;;;;;;;;;;;3.00;99.90;;;1.85;100.00;97087.16;10470205;28;1873;-68
2022/01/24 12:42:58;;;;;;;;;;;3.00;99.90;;;1.59;100.00;97088.47;10469797;28;1939;-68
2022/01/24 12:48:18;;;;;;;;;;;2.90;99.90;;;1.25;100.00;97083.72;10468912;28;1991;-68
2022/01/24 12:53:22;;;;;;;;;;;2.70;99.90;;;1.51;100.00;97083.25;10467221;28;1856;-68
2022/01/24 12:58:25;;;;;;;;;;;2.60;99.90;;;1.58;100.00;97070.06;10470346;28;1824;-68
2022/01/24 13:03:32;;;;;;;;;;;2.60;99.90;;;1.28;100.00;97077.25;10470729;28;1890;-70
2022/01/24 13:08:35;;;;;;;;;;;2.60;99.90;;;1.21;100.00;97065.72;10477353;28;1894;-69
2022/01/24 13:13:41;;;;;;;;;;;2.40;99.90;;;0.95;100.00;97055.59;10475862;28;1761;-69
2022/01/24 13:24:05;;;;;;;;;;;2.20;99.90;;;1.12;100.00;97045.66;10472607;28;1836;-68
2022/01/24 13:29:08;;;;;;;;;;;2.20;99.90;;;1.38;100.00;97045.16;10472455;28;1910;-69
2022/01/24 13:34:11;;;;;;;;;;;2.40;99.90;;;1.46;100.00;97035.28;10481726;28;1760;-68
2022/01/24 13:39:14;;;;;;;;;;;2.40;99.90;;;1.42;100.00;97036.66;10484735;28;1816;-69
2022/01/24 13:44:17;;;;;;;;;;;2.50;99.90;;;1.23;100.00;97037.25;10485077;28;1789;-68
2022/01/24 13:49:21;;;;;;;;;;;2.40;99.90;;;1.08;100.00;97035.44;10481652;28;1899;-67
2022/01/24 13:54:26;;;;;;;;;;;2.20;99.90;;;0.86;100.00;97031.03;10466551;28;1902;-71
2022/01/24 13:59:32;;;;;;;;;;;2.10;99.90;;;0.95;100.00;97040.50;10466338;28;1823;-69
2022/01/24 14:04:37;;;;;;;;;;;2.10;99.90;;;0.97;100.00;97043.00;10464032;28;1886;-68
2022/01/24 14:09:42;;;;;;;;;;;2.10;99.90;;;0.91;100.00;97049.84;10457801;28;1914;-68
2022/01/24 14:14:54;;;;;;;;;;;1.30;99.90;;;0.79;100.00;97051.28;10461869;28;1898;-66
2022/01/24 14:19:57;;;;;;;;;;;2.00;99.90;;;0.62;100.00;97053.25;10458859;28;1878;-67
2022/01/24 14:25:00;;;;;;;;;;;1.90;99.90;;;0.61;100.00;97048.97;10469251;28;1776;-67
2022/01/24 14:30:03;;;;;;;;;;;1.80;99.90;;;0.60;100.00;97046.50;10466163;28;1910;-67
2022/01/24 14:35:06;;;;;;;;;;;1.70;99.90;;;0.64;100.00;97047.81;10466508;28;1780;-68
2022/01/24 14:40:10;;;;;;;;;;;1.70;99.90;;;0.70;100.00;97037.31;10469797;28;1883;-68
2022/01/24 14:45:14;;;;;;;;;;;1.80;99.90;;;0.65;100.00;97044.16;10466403;28;1959;-68
2022/01/24 14:50:16;;;;;;;;;;;1.80;99.90;;;0.59;100.00;97052.81;10457802;28;1989;-67
2022/01/24 14:55:22;;;;;;;;;;;1.70;99.90;;;0.66;100.00;97057.19;10468920;28;1848;-67
2022/01/24 15:00:31;;;;;;;;;;;1.80;99.90;;;0.64;100.00;97055.75;10468543;28;1626;-67
2022/01/24 15:05:34;;;;;;;;;;;1.70;99.90;;;0.67;100.00;97061.50;10466550;28;1608;-67
2022/01/24 15:10:38;;;;;;;;;;;1.70;99.90;;;0.69;100.00;97063.94;10471603;28;1910;-67
2022/01/24 15:15:50;;;;;;;;;;;1.80;99.90;;;0.66;100.00;97057.19;10470107;28;1815;-68
2022/01/24 15:26:14;;;;;;;;;;;1.80;99.90;;;0.70;100.00;97070.88;10472893;28;1997;-66
2022/01/24 15:31:16;;;;;;;;;;;1.80;99.90;;;0.65;100.00;97066.16;10470283;28;1987;-68
2022/01/24 15:36:19;;;;;;;;;;;1.80;99.90;;;0.60;100.00;97065.03;10475450;28;1798;-67
2022/01/24 15:41:23;;;;;;;;;;;1.70;99.90;;;0.58;100.00;97069.69;10475291;28;1874;-68
2022/01/24 15:51:46;;;;;;;;;;;1.60;99.90;;;0.45;100.00;97065.00;10468859;28;1910;-68
2022/01/24 16:02:10;;;;;;;;;;;1.50;99.90;;;0.39;100.00;97055.97;10478955;28;1802;-69
2022/01/24 16:07:13;;;;;;;;;;;1.50;99.90;;;0.50;100.00;97063.44;10472260;28;1844;-71
2022/01/24 16:12:17;;;;;;;;;;;1.50;99.90;;;0.51;100.00;97059.00;10471334;28;1918;-71
2022/01/24 16:17:20;;;;;;;;;;;1.60;99.90;;;0.39;100.00;97060.44;10471092;28;1752;-70
2022/01/24 16:22:46;;;;;;;;;;;1.50;99.90;;;0.24;100.00;97057.72;10466040;28;1879;-70
2022/01/24 16:27:49;;;;;;;;;;;1.40;99.90;;;0.20;100.00;97073.13;10464889;28;1887;-69
2022/01/24 16:32:52;;;;;;;;;;;1.40;99.90;;;0.09;100.00;97070.06;10478078;28;1815;-70
2022/01/24 16:37:55;;;;;;;;;;;1.30;99.90;;;-0.07;100.00;97069.16;10473371;28;1749;-71
2022/01/24 16:48:24;;;;;;;;;;;1.10;99.90;;;-0.38;100.00;97076.28;10457155;28;1914;-71
2022/01/24 16:53:27;;;;;;;;;;;0.80;99.90;;;-0.32;100.00;97079.09;10480647;28;1923;-73
2022/01/24 16:58:30;;;;;;;;;;;0.80;99.90;;;-0.17;100.00;97073.88;10489236;28;1612;-71
2022/01/24 17:03:33;;;;;;;;;;;0.80;99.90;;;-0.03;100.00;97078.41;10502367;28;1777;-68
2022/01/24 17:08:39;;;;;;;;;;;0.90;99.90;;;-0.01;100.00;97076.41;10505944;28;1890;-71
2022/01/24 17:19:22;;;;;;;;;;;1.10;99.90;;;0.13;100.00;97066.09;10512003;28;1845;-71
2022/01/24 17:24:25;;;;;;;;;;;1.10;99.90;;;0.16;100.00;97076.31;10511856;28;1775;-70
2022/01/24 17:29:49;;;;;;;;;;;1.20;99.90;;;0.02;100.00;97079.72;10507142;28;1913;-71
2022/01/24 17:35:12;;;;;;;;;;;1.20;99.90;;;-0.07;100.00;97074.44;10492529;28;1908;-70
2022/01/24 17:40:15;;;;;;;;;;;1.10;99.90;;;-0.02;100.00;97080.03;10509311;28;1837;-72
2022/01/24 17:45:24;;;;;;;;;;;1.10;99.90;;;-0.17;100.00;97089.72;10494971;28;1548;-70
2022/01/24 17:50:28;;;;;;;;;;;0.90;99.90;;;-0.12;100.00;97100.59;10491872;28;1928;-70
2022/01/24 17:55:31;;;;;;;;;;;0.90;99.90;;;-0.25;100.00;97097.72;10481381;28;1863;-71
2022/01/24 18:00:35;;;;;;;;;;;0.80;99.90;;;-0.19;100.00;97097.03;10492353;28;1832;-70
2022/01/24 18:05:40;;;;;;;;;;;0.90;99.90;;;-0.03;100.00;97099.56;10476430;28;1785;-69
2022/01/24 18:10:43;;;;;;;;;;;1.00;99.90;;;0.02;100.00;97098.22;10471414;28;1922;-70
2022/01/24 18:15:49;;;;;;;;;;;1.00;99.90;;;-0.02;100.00;97103.84;10477950;28;1942;-70
2022/01/24 18:20:52;;;;;;;;;;;1.10;99.90;;;-0.11;100.00;97091.69;10496943;28;1844;-69
2022/01/24 18:25:55;;;;;;;;;;;1.00;99.90;;;-0.11;100.00;97112.00;10484156;28;2180;-71
2022/01/24 18:30:59;;;;;;;;;;;0.90;99.90;;;-0.01;100.00;97108.13;10472109;28;1910;-70
2022/01/24 18:36:02;;;;;;;;;;;1.00;99.90;;;-0.18;100.00;97106.59;10484367;28;2172;-70
2022/01/24 18:41:05;;;;;;;;;;;1.00;99.90;;;-0.13;100.00;97112.16;10480995;28;1809;-71
2022/01/24 18:46:09;;;;;;;;;;;0.90;99.90;;;0.01;100.00;97107.16;10489077;28;1824;-69
2022/01/24 18:51:12;;;;;;;;;;;1.00;99.90;;;0.00;100.00;97114.25;10478086;28;1914;-69
2022/01/24 18:56:15;;;;;;;;;;;1.00;99.90;;;0.09;100.00;97101.81;10480157;28;1924;-69
2022/01/24 19:01:17;;;;;;;;;;;1.10;99.90;;;0.10;100.00;97103.44;10472969;28;1951;-69
2022/01/24 19:06:21;;;;;;;;;;;1.20;99.90;;;0.19;100.00;97102.38;10470310;28;1910;-70
2022/01/24 19:11:26;;;;;;;;;;;1.20;99.90;;;0.35;100.00;97096.97;10471312;28;1883;-70
2022/01/24 19:16:29;;;;;;;;;;;1.30;99.90;;;0.30;100.00;97104.63;10470253;28;1954;-69
2022/01/24 19:26:53;;;;;;;;;;;1.30;99.90;;;-0.11;100.00;97106.72;10471899;28;2217;-70
2022/01/24 19:31:56;;;;;;;;;;;1.20;99.90;;;0.03;100.00;97113.91;10467119;28;2385;-70
2022/01/24 19:36:59;;;;;;;;;;;1.10;99.90;;;0.22;100.00;97112.63;10470931;28;1863;-70
2022/01/24 19:42:03;;;;;;;;;;;1.10;99.90;;;0.27;100.00;97110.28;10471204;28;1852;-72
2022/01/24 19:47:06;;;;;;;;;;;1.20;99.90;;;0.32;100.00;97117.66;10469722;28;1788;-70
2022/01/24 19:52:09;;;;;;;;;;;1.30;99.90;;;0.29;100.00;97113.56;10471079;28;1914;-72
2022/01/24 19:57:15;;;;;;;;;;;1.40;99.90;;;0.19;100.00;97107.66;10467937;28;1828;-70
2022/01/24 20:02:18;;;;;;;;;;;1.30;99.90;;;0.03;100.00;97119.19;10470012;28;1728;-70
2022/01/24 20:07:21;;;;;;;;;;;1.20;99.90;;;-0.08;100.00;97112.47;10478348;28;1899;-70
2022/01/24 20:12:25;;;;;;;;;;;1.10;99.90;;;-0.06;100.00;97110.50;10470089;28;1921;-69
2022/01/24 20:17:29;;;;;;;;;;;1.00;99.90;;;-0.16;100.00;97112.50;10469968;28;1841;-70
2022/01/24 20:22:32;;;;;;;;;;;1.00;99.90;;;-0.21;100.00;97114.84;10472135;28;1940;-70
2022/01/24 20:27:35;;;;;;;;;;;1.00;99.90;;;-0.23;100.00;97108.91;10463288;28;1896;-71
2022/01/24 20:32:40;;;;;;;;;;;0.80;99.90;;;-0.23;100.00;97103.63;10471700;28;1972;-70
2022/01/24 20:37:43;;;;;;;;;;;0.90;99.90;;;-0.21;100.00;97114.84;10469334;28;1839;-72
2022/01/24 20:42:46;;;;;;;;;;;0.90;99.90;;;-0.03;100.00;97104.00;10469937;28;1891;-70
2022/01/24 20:47:49;;;;;;;;;;;1.00;99.90;;;0.07;100.00;97098.53;10495696;28;2008;-72
2022/01/24 20:52:53;;;;;;;;;;;1.00;99.90;;;0.14;100.00;97104.75;10503336;28;2145;-71
2022/01/24 20:57:56;;;;;;;;;;;1.10;99.90;;;0.26;100.00;97093.59;10500028;28;2197;-71
2022/01/24 21:02:59;;;;;;;;;;;1.20;99.90;;;0.17;100.00;97105.19;10473427;28;2255;-72
2022/01/24 21:08:03;;;;;;;;;;;1.20;99.90;;;0.28;100.00;97101.34;10463580;28;1804;-73
2022/01/24 21:13:12;;;;;;;;;;;1.90;99.90;;;0.19;100.00;97097.94;10469783;28;1983;-72
2022/01/24 21:18:18;;;;;;;;;;;1.20;99.90;;;0.13;100.00;97101.28;10464539;28;1886;-72
2022/01/24 21:23:21;;;;;;;;;;;1.20;99.90;;;0.17;100.00;97099.09;10465396;28;2184;-72
2022/01/24 21:28:24;;;;;;;;;;;1.20;99.90;;;0.19;100.00;97089.16;10470798;28;2257;-72
2022/01/24 21:33:39;;;;;;;;;;;1.20;99.90;;;0.21;100.00;97088.00;10476627;28;1961;-71
2022/01/24 21:38:42;;;;;;;;;;;1.30;99.90;;;0.12;100.00;97083.75;10462212;28;2117;-74
2022/01/24 21:43:45;;;;;;;;;;;1.20;99.90;;;0.08;100.00;97079.81;10468805;28;1824;-72
2022/01/24 21:48:49;;;;;;;;;;;1.10;99.90;;;0.20;100.00;97078.44;10468216;28;1958;-73
2022/01/24 21:53:51;;;;;;;;;;;1.10;99.90;;;0.09;100.00;97080.66;10472151;28;1894;-72
2022/01/24 21:58:54;;;;;;;;;;;1.10;99.90;;;-0.04;100.00;97082.03;10464523;28;1747;-70
2022/01/24 22:03:57;;;;;;;;;;;1.20;99.90;;;-0.37;100.00;97076.13;10462414;28;1733;-71
2022/01/24 22:09:00;;;;;;;;;;;0.90;99.90;;;-0.32;100.00;97087.00;10462049;28;1803;-72
2022/01/24 22:14:03;;;;;;;;;;;0.80;99.90;;;-0.12;100.00;97073.34;10475583;28;1918;-72
2022/01/24 22:19:06;;;;;;;;;;;0.90;99.90;;;0.13;100.00;97074.03;10471121;28;1871;-70
2022/01/24 22:24:09;;;;;;;;;;;1.00;99.90;;;0.05;100.00;97080.16;10476881;28;1808;-70
2022/01/24 22:29:12;;;;;;;;;;;1.00;99.90;;;0.09;100.00;97073.53;10477563;28;2072;-71
2022/01/24 22:34:15;;;;;;;;;;;1.10;99.90;;;-0.06;100.00;97072.66;10477992;28;1886;-72
2022/01/24 22:39:18;;;;;;;;;;;0.90;99.90;;;0.08;100.00;97073.72;10483435;28;1854;-72
2022/01/24 22:44:21;;;;;;;;;;;1.00;99.90;;;0.12;100.00;97070.53;10475411;28;2422;-73
2022/01/24 22:49:24;;;;;;;;;;;1.10;99.90;;;0.22;100.00;97070.31;10478957;28;2025;-71
2022/01/24 22:54:28;;;;;;;;;;;1.20;99.90;;;0.09;100.00;97070.91;10475570;28;1918;-71
2022/01/24 22:59:36;;;;;;;;;;;1.10;99.90;;;-0.02;100.00;97076.56;10478691;28;1781;-71
2022/01/24 23:04:39;;;;;;;;;;;1.10;99.90;;;0.12;100.00;97073.16;10482054;28;1772;-70
2022/01/24 23:09:45;;;;;;;;;;;1.00;99.90;;;0.05;100.00;97074.88;10482660;28;1918;-70
2022/01/24 23:20:08;;;;;;;;;;;1.00;99.90;;;0.11;100.00;97073.34;10474171;28;1863;-71
2022/01/24 23:25:12;;;;;;;;;;;1.10;99.90;;;0.10;100.00;97075.19;10470035;28;1927;-72
2022/01/24 23:30:19;;;;;;;;;;;1.10;99.90;;;0.07;100.00;97082.66;10480378;28;2243;-72
2022/01/24 23:40:58;;;;;;;;;;;1.00;99.90;;;0.30;100.00;97075.53;10475135;28;2255;-71
2022/01/24 23:46:01;;;;;;;;;;;1.20;99.90;;;0.03;100.00;97081.34;10475996;28;1848;-71
2022/01/24 23:51:05;;;;;;;;;;;1.10;99.90;;;0.13;100.00;97084.59;10479686;28;1918;-72
2022/01/24 23:56:11;;;;;;;;;;;1.10;99.90;;;0.06;100.00;97088.91;10474291;28;1844;-70
